Johannesburg, South Africa
Current Conditions -  °F | °C
As of 5:30 AM on Wednesday 22 Oct 2014 (Local Time) from FAOR Reporting Station
Clear Clear  
Wind Chill: 12°   Ceiling: Unl
Heat Index: 12°   Visibility: 5mi
Dew Point: 10°   Wind: 9mph
Humidity: 88%   Direction: 350°N
Pressure: 30.3"   Gusts: NA
Location:  26.19°S, 28.04°E
Report Text: FAOR 220330Z 35008KT 8000 NSC 12/10 Q1026 NOSIG
Loading
Personal Weather Stations






























Interactive Weather Map
Tropical Storm Tracking
New forecast layout! Learn more

10-Day Weather Forecast

Advertisements
Track Severe Weather on mobile